createdAt,value
2024-01-22T00:00:48.414Z,5.00
2024-01-22T00:03:17.549Z,4.22
2024-01-22T00:05:45.988Z,4.82
2024-01-22T00:08:14.695Z,3.95
2024-01-22T00:10:42.695Z,3.53
2024-01-22T00:13:10.533Z,4.93
2024-01-22T00:15:38.405Z,3.33
2024-01-22T00:18:08.255Z,3.45
2024-01-22T00:20:36.920Z,4.07
2024-01-22T00:23:05.674Z,3.83
2024-01-22T00:25:33.700Z,4.07
2024-01-22T00:28:01.544Z,4.30
2024-01-22T00:30:29.489Z,3.58
2024-01-22T00:32:57.895Z,3.67
2024-01-22T00:35:26.231Z,3.28
2024-01-22T00:37:54.148Z,3.38
2024-01-22T00:40:22.074Z,3.70
2024-01-22T00:42:50.072Z,3.35
2024-01-22T00:45:18.209Z,4.95
2024-01-22T00:47:46.174Z,3.00
2024-01-22T00:50:14.572Z,3.88
2024-01-22T00:52:43.860Z,3.58
2024-01-22T00:55:11.898Z,3.25
2024-01-22T00:57:39.862Z,3.42
2024-01-22T01:00:09.456Z,3.22
2024-01-22T01:02:37.515Z,3.20
2024-01-22T01:05:05.709Z,4.32
2024-01-22T01:07:34.232Z,2.95
2024-01-22T01:10:03.630Z,3.00
2024-01-22T01:12:31.467Z,5.50
2024-01-22T01:14:59.354Z,3.50
2024-01-22T01:17:27.356Z,3.28
2024-01-22T01:19:55.342Z,3.47
2024-01-22T01:22:23.184Z,3.20
2024-01-22T01:24:51.032Z,3.28
2024-01-22T01:27:20.584Z,3.25
2024-01-22T01:29:48.534Z,3.10
2024-01-22T01:32:16.618Z,3.72
2024-01-22T01:34:44.676Z,3.38
2024-01-22T01:37:12.550Z,3.20
2024-01-22T01:39:40.394Z,3.72
2024-01-22T01:42:08.596Z,4.10
2024-01-22T01:44:51.342Z,3.10
2024-01-22T01:47:19.967Z,3.40
2024-01-22T01:49:49.279Z,3.30
2024-01-22T01:52:18.304Z,3.50
2024-01-22T01:54:47.623Z,3.22
2024-01-22T01:57:16.078Z,3.17
2024-01-22T01:59:45.694Z,2.65
2024-01-22T02:02:14.352Z,2.83
2024-01-22T02:04:42.321Z,2.67
2024-01-22T02:07:10.648Z,3.67
2024-01-22T02:09:49.235Z,3.03
2024-01-22T02:12:18.481Z,3.05
2024-01-22T02:14:48.382Z,3.65
2024-01-22T02:17:16.632Z,4.25
2024-01-22T02:19:45.125Z,2.70
2024-01-22T02:22:13.402Z,3.10
2024-01-22T02:24:42.752Z,3.25
2024-01-22T02:27:10.834Z,2.30
2024-01-22T02:29:38.898Z,2.67
2024-01-22T02:32:07.522Z,3.53
2024-01-22T02:34:35.870Z,2.10
2024-01-22T02:37:03.990Z,2.42
2024-01-22T02:39:32.114Z,2.30
2024-01-22T02:42:01.651Z,3.75
2024-01-22T02:44:29.461Z,3.05
2024-01-22T02:46:57.516Z,2.38
2024-01-22T02:49:25.594Z,2.45
2024-01-22T02:51:53.598Z,3.17
2024-01-22T02:54:21.554Z,2.47
2024-01-22T02:56:49.553Z,2.63
2024-01-22T02:59:20.243Z,3.45
2024-01-22T03:01:48.278Z,2.78
2024-01-22T03:04:16.698Z,2.50
2024-01-22T03:06:44.778Z,2.50
2024-01-22T03:09:12.743Z,2.85
2024-01-22T03:11:41.865Z,2.33
2024-01-22T03:14:09.731Z,2.00
2024-01-22T03:16:39.029Z,2.05
2024-01-22T03:19:07.171Z,1.42
2024-01-22T03:21:35.093Z,2.03
2024-01-22T03:24:03.291Z,2.40
2024-01-22T03:26:31.464Z,2.47
2024-01-22T03:28:59.370Z,1.50
2024-01-22T03:31:28.764Z,3.05
2024-01-22T03:33:58.833Z,2.35
2024-01-22T03:36:27.303Z,1.90
2024-01-22T03:38:55.216Z,1.77
2024-01-22T03:41:23.215Z,2.25
2024-01-22T03:43:51.121Z,2.50
2024-01-22T03:46:19.953Z,3.08
2024-01-22T03:48:48.053Z,1.45
2024-01-22T03:51:17.556Z,2.55
2024-01-22T03:53:45.552Z,1.77
2024-01-22T03:56:13.986Z,2.28
2024-01-22T03:58:41.993Z,3.45
2024-01-22T04:01:10.278Z,2.20
2024-01-22T04:03:38.288Z,3.75
2024-01-22T04:06:07.349Z,2.00
2024-01-22T04:08:36.706Z,2.05
2024-01-22T04:11:04.686Z,1.85
2024-01-22T04:13:35.478Z,2.28
2024-01-22T04:16:03.955Z,2.33
2024-01-22T04:18:32.076Z,2.17
2024-01-22T04:21:00.183Z,2.60
2024-01-22T04:23:28.537Z,3.22
2024-01-22T04:25:57.909Z,3.28
2024-01-22T04:28:25.890Z,2.33
2024-01-22T04:30:53.837Z,2.83
2024-01-22T04:33:22.031Z,2.33
2024-01-22T04:35:50.838Z,2.20
2024-01-22T04:38:19.675Z,2.70
2024-01-22T04:40:47.724Z,3.03
2024-01-22T04:43:17.865Z,2.00
2024-01-22T04:45:45.819Z,1.92
2024-01-22T04:48:14.179Z,1.95
2024-01-22T04:50:42.293Z,2.38
2024-01-22T04:53:10.276Z,1.75
2024-01-22T04:55:38.616Z,3.00
2024-01-22T04:58:06.681Z,2.35
2024-01-22T05:00:36.105Z,2.28
2024-01-22T05:03:06.493Z,1.92
2024-01-22T05:05:35.446Z,2.17
2024-01-22T05:08:03.593Z,1.55
2024-01-22T05:10:31.532Z,2.08
2024-01-22T05:12:59.385Z,1.95
2024-01-22T05:15:27.318Z,1.25
2024-01-22T05:17:56.804Z,3.65
2024-01-22T05:20:24.736Z,2.67
2024-01-22T05:22:52.612Z,2.42
2024-01-22T05:25:20.700Z,2.17
2024-01-22T05:27:49.405Z,1.92
2024-01-22T05:30:17.404Z,2.10
2024-01-22T05:32:45.451Z,2.83
2024-01-22T05:35:16.163Z,4.07
2024-01-22T05:37:44.063Z,2.22
2024-01-22T05:40:12.497Z,1.52
2024-01-22T05:42:41.830Z,2.80
2024-01-22T05:45:11.613Z,1.98
2024-01-22T05:47:39.631Z,3.30
2024-01-22T05:50:10.121Z,2.97
2024-01-22T05:52:39.467Z,3.15
2024-01-22T05:55:08.120Z,2.53
2024-01-22T05:57:36.081Z,1.58
2024-01-22T06:00:10.586Z,1.67
2024-01-22T06:02:40.960Z,1.08
2024-01-22T06:05:10.658Z,1.27
2024-01-22T06:07:40.211Z,1.55
2024-01-22T06:10:09.878Z,0.60
2024-01-22T06:12:38.257Z,1.20
2024-01-22T06:15:06.853Z,1.33
2024-01-22T06:17:35.133Z,3.05
2024-01-22T06:20:04.583Z,1.00
2024-01-22T06:22:34.721Z,1.30
2024-01-22T06:25:05.103Z,0.82
2024-01-22T06:27:33.035Z,1.00
2024-01-22T06:32:56.625Z,0.90
2024-01-22T06:35:24.716Z,0.85
2024-01-22T06:37:53.456Z,0.90
2024-01-22T06:40:22.828Z,0.85
2024-01-22T06:42:50.951Z,0.47
2024-01-22T06:45:19.268Z,1.15
2024-01-22T06:47:47.214Z,0.68
2024-01-22T06:50:15.545Z,0.75
2024-01-22T06:52:44.181Z,0.80
2024-01-22T06:55:12.126Z,0.88
2024-01-22T06:57:41.688Z,0.57
2024-01-22T07:00:13.310Z,0.77
2024-01-22T07:02:42.833Z,0.82
2024-01-22T07:05:11.841Z,1.00
2024-01-22T07:07:40.336Z,0.73
2024-01-22T07:10:09.797Z,0.93
2024-01-22T07:12:38.093Z,1.10
2024-01-22T07:15:09.934Z,0.47
2024-01-22T07:17:37.902Z,0.80
2024-01-22T07:20:06.978Z,0.82
2024-01-22T07:22:37.526Z,2.25
2024-01-22T07:25:06.063Z,1.13
2024-01-22T07:27:33.865Z,1.48
2024-01-22T07:30:01.837Z,1.33
2024-01-22T07:32:31.753Z,1.50
2024-01-22T07:34:59.766Z,1.83
2024-01-22T07:37:27.737Z,1.13
2024-01-22T07:39:56.189Z,1.25
2024-01-22T07:42:24.093Z,1.30
2024-01-22T07:44:52.217Z,0.85
2024-01-22T07:47:23.184Z,1.00
2024-01-22T07:49:52.726Z,1.02
2024-01-22T07:52:22.017Z,1.20
2024-01-22T07:54:50.521Z,1.13
2024-01-22T07:57:18.662Z,0.73
2024-01-22T07:59:47.802Z,0.55
2024-01-22T08:02:16.006Z,0.95
2024-01-22T08:04:44.079Z,0.70
2024-01-22T08:07:13.680Z,1.45
2024-01-22T08:09:42.191Z,1.67
2024-01-22T08:12:10.220Z,0.40
2024-01-22T08:14:38.268Z,0.88
2024-01-22T08:17:06.240Z,0.73
2024-01-22T08:19:35.814Z,0.60
2024-01-22T08:22:04.238Z,1.95
2024-01-22T08:24:34.156Z,0.40
2024-01-22T08:27:02.321Z,0.93
2024-01-22T08:29:30.307Z,1.00
2024-01-22T08:31:58.201Z,0.50
2024-01-22T08:34:26.399Z,1.75
2024-01-22T08:36:54.477Z,0.82
2024-01-22T08:39:22.657Z,1.92
2024-01-22T08:41:51.968Z,1.38
2024-01-22T08:44:20.138Z,1.17
2024-01-22T08:46:48.059Z,1.98
2024-01-22T08:49:16.031Z,1.20
2024-01-22T08:51:44.000Z,1.63
2024-01-22T08:54:12.064Z,2.30
2024-01-22T08:56:40.292Z,3.00
2024-01-22T08:59:10.074Z,1.65
2024-01-22T09:01:38.112Z,2.03
2024-01-22T09:04:07.279Z,1.33
2024-01-22T09:06:35.476Z,1.75
2024-01-22T09:09:06.320Z,2.65
2024-01-22T09:11:34.358Z,1.60
2024-01-22T09:14:02.270Z,1.77
2024-01-22T09:16:31.790Z,1.50
2024-01-22T09:19:00.204Z,2.85
2024-01-22T09:21:28.340Z,3.10
2024-01-22T09:23:56.353Z,3.13
2024-01-22T09:26:24.373Z,2.22
2024-01-22T09:28:52.448Z,1.65
2024-01-22T09:31:20.451Z,2.10
2024-01-22T09:33:52.408Z,3.15
2024-01-22T09:36:20.809Z,1.77
2024-01-22T09:38:48.921Z,2.30
2024-01-22T09:41:17.345Z,3.63
2024-01-22T09:43:45.363Z,4.10
2024-01-22T09:46:14.223Z,2.50
2024-01-22T09:48:42.805Z,2.38
2024-01-22T09:51:14.022Z,3.58
2024-01-22T09:53:47.741Z,3.08
2024-01-22T09:56:21.105Z,2.20
2024-01-22T09:58:54.132Z,2.53
2024-01-22T10:01:22.244Z,2.58
2024-01-22T10:03:50.265Z,3.55
2024-01-22T10:06:22.958Z,3.25
2024-01-22T10:08:58.694Z,2.45
2024-01-22T10:11:27.418Z,2.80
2024-01-22T10:13:57.920Z,2.47
2024-01-22T10:16:27.547Z,2.72
2024-01-22T10:19:00.374Z,2.78
2024-01-22T10:21:30.122Z,3.05
2024-01-22T10:23:59.245Z,3.47
2024-01-22T10:26:27.232Z,4.88
2024-01-22T10:28:56.436Z,4.60
2024-01-22T10:31:24.468Z,3.15
2024-01-22T10:34:06.709Z,3.90
2024-01-22T10:36:36.266Z,3.30
2024-01-22T10:39:05.575Z,4.15
2024-01-22T10:41:36.441Z,2.83
2024-01-22T10:44:05.212Z,2.92
2024-01-22T10:46:33.773Z,3.08
2024-01-22T10:49:02.496Z,2.35
2024-01-22T10:51:31.302Z,2.50
2024-01-22T10:54:00.910Z,2.88
2024-01-22T10:56:32.593Z,2.88
2024-01-22T10:59:09.931Z,2.38
2024-01-22T11:01:39.403Z,1.50
2024-01-22T11:04:11.947Z,0.75
2024-01-22T11:06:44.139Z,2.20
2024-01-22T11:09:14.584Z,1.75
2024-01-22T11:11:44.534Z,1.20
2024-01-22T11:14:12.530Z,1.83
2024-01-22T11:16:40.744Z,0.93
2024-01-22T11:19:09.260Z,2.42
2024-01-22T11:21:39.221Z,1.33
2024-01-22T11:24:11.817Z,1.25
2024-01-22T11:26:45.791Z,2.22
2024-01-22T11:29:17.513Z,2.25
2024-01-22T11:31:48.009Z,1.40
2024-01-22T11:34:37.925Z,2.10
2024-01-22T11:37:08.741Z,1.40
2024-01-22T11:39:44.037Z,3.17
2024-01-22T11:42:29.832Z,2.85
2024-01-22T11:45:08.772Z,1.90
2024-01-22T11:47:37.057Z,1.30
2024-01-22T11:50:08.649Z,1.45
2024-01-22T11:52:38.567Z,1.48
2024-01-22T11:55:08.519Z,1.63
2024-01-22T11:57:41.191Z,0.63
2024-01-22T12:00:13.464Z,1.92
2024-01-22T12:02:43.691Z,1.42
2024-01-22T12:05:14.266Z,1.85
2024-01-22T12:07:44.030Z,2.00
2024-01-22T12:10:22.623Z,1.75
2024-01-22T12:12:53.497Z,2.25
2024-01-22T12:15:23.826Z,2.72
2024-01-22T12:17:52.949Z,2.38
2024-01-22T12:20:21.854Z,2.50
2024-01-22T12:22:58.672Z,2.00
2024-01-22T12:25:35.483Z,2.22
2024-01-22T12:28:11.841Z,2.78
2024-01-22T12:30:43.392Z,1.80
2024-01-22T12:33:22.850Z,2.33
2024-01-22T12:35:53.426Z,2.28
2024-01-22T12:38:23.601Z,3.40
2024-01-22T12:40:59.299Z,2.72
2024-01-22T12:43:30.108Z,2.85
2024-01-22T12:46:06.164Z,2.17
2024-01-22T12:48:34.989Z,2.58
2024-01-22T12:51:03.204Z,5.10
2024-01-22T12:53:33.658Z,3.75
2024-01-22T12:56:02.371Z,5.10
2024-01-22T12:58:31.850Z,5.40
2024-01-22T13:01:00.193Z,4.82
2024-01-22T13:03:28.426Z,5.70
2024-01-22T13:05:56.493Z,5.47
2024-01-22T13:08:24.436Z,3.55
2024-01-22T13:10:52.859Z,3.00
2024-01-22T13:13:20.810Z,2.75
2024-01-22T13:16:03.073Z,2.88
2024-01-22T13:18:40.048Z,3.53
2024-01-22T13:21:08.974Z,3.17
2024-01-22T13:23:37.170Z,4.65
2024-01-22T13:26:05.593Z,6.15
2024-01-22T13:28:33.504Z,5.85
2024-01-22T13:31:03.215Z,7.00
2024-01-22T13:33:31.298Z,8.55
2024-01-22T13:35:59.409Z,5.72
2024-01-22T13:38:30.254Z,7.57
2024-01-22T13:40:58.921Z,9.27
2024-01-22T13:43:26.843Z,7.28
2024-01-22T13:45:55.436Z,6.53
2024-01-22T13:48:24.910Z,5.53
2024-01-22T13:50:53.164Z,4.70
2024-01-22T13:53:21.745Z,5.20
2024-01-22T13:55:49.977Z,9.57
2024-01-22T13:58:17.894Z,8.32
2024-01-22T14:00:45.970Z,4.57
2024-01-22T14:03:14.677Z,6.78
2024-01-22T14:05:44.291Z,8.48
2024-01-22T14:08:12.579Z,9.65
2024-01-22T14:10:42.214Z,6.20
2024-01-22T14:13:10.369Z,9.15
2024-01-22T14:15:38.307Z,6.82
2024-01-22T14:18:06.653Z,7.70
2024-01-22T14:20:34.792Z,8.90
2024-01-22T14:23:08.775Z,9.23
2024-01-22T14:25:37.890Z,7.25
2024-01-22T14:28:06.350Z,6.97
2024-01-22T14:30:34.889Z,6.35
2024-01-22T14:33:03.071Z,7.07
2024-01-22T14:35:31.663Z,6.60
2024-01-22T14:38:00.412Z,8.55
2024-01-22T14:40:30.050Z,7.15
2024-01-22T14:42:58.447Z,9.23
2024-01-22T14:45:26.864Z,10.95
2024-01-22T14:47:55.594Z,7.53
2024-01-22T14:50:23.885Z,8.02
2024-01-22T14:52:51.840Z,8.73
2024-01-22T14:55:19.962Z,5.72
2024-01-22T14:57:49.230Z,10.20
2024-01-22T15:00:18.327Z,9.27
2024-01-22T15:02:46.317Z,7.47
2024-01-22T15:05:15.421Z,9.73
2024-01-22T15:07:43.509Z,6.93
2024-01-22T15:10:11.752Z,6.70
2024-01-22T15:12:39.652Z,7.65
2024-01-22T15:15:11.224Z,10.27
2024-01-22T15:17:39.428Z,8.45
2024-01-22T15:20:10.489Z,8.07
2024-01-22T15:22:40.740Z,6.15
2024-01-22T15:25:10.490Z,9.25
2024-01-22T15:27:38.931Z,5.57
2024-01-22T15:30:12.370Z,6.90
2024-01-22T15:32:41.074Z,8.48
2024-01-22T15:35:10.932Z,8.52
2024-01-22T15:37:39.611Z,9.35
2024-01-22T15:40:09.034Z,11.70
2024-01-22T15:42:37.786Z,6.30
2024-01-22T15:45:09.392Z,9.82
2024-01-22T15:47:40.985Z,6.38
2024-01-22T15:50:09.845Z,8.07
2024-01-22T15:52:37.787Z,9.18
2024-01-22T15:55:06.455Z,7.57
2024-01-22T15:57:35.051Z,9.65
2024-01-22T16:00:03.551Z,6.85
2024-01-22T16:02:41.516Z,9.00
2024-01-22T16:05:10.059Z,6.50
2024-01-22T16:07:38.513Z,8.20
2024-01-22T16:10:07.925Z,7.95
2024-01-22T16:12:36.207Z,10.35
2024-01-22T16:15:04.721Z,7.18
2024-01-22T16:17:33.039Z,8.98
2024-01-22T16:20:02.652Z,7.13
2024-01-22T16:22:30.731Z,5.90
2024-01-22T16:25:02.735Z,5.28
2024-01-22T16:27:30.799Z,8.10
2024-01-22T16:29:58.963Z,8.35
2024-01-22T16:32:27.120Z,8.25
2024-01-22T16:34:56.040Z,9.07
2024-01-22T16:37:27.386Z,6.93
2024-01-22T16:39:55.326Z,8.60
2024-01-22T16:42:23.291Z,7.30
2024-01-22T16:44:51.464Z,9.15
2024-01-22T16:47:19.985Z,8.40
2024-01-22T16:49:48.125Z,6.55
2024-01-22T16:52:16.612Z,7.35
2024-01-22T16:54:46.298Z,7.60
2024-01-22T16:57:14.538Z,6.50
2024-01-22T16:59:42.919Z,8.85
2024-01-22T17:02:10.841Z,11.10
2024-01-22T17:04:38.868Z,11.73
2024-01-22T17:07:07.376Z,10.30
2024-01-22T17:09:35.477Z,9.68
2024-01-22T17:12:07.431Z,7.72
2024-01-22T17:14:36.793Z,8.60
2024-01-22T17:20:58.683Z,10.63
2024-01-22T17:23:27.088Z,7.65
2024-01-22T17:25:55.904Z,9.10
2024-01-22T17:28:25.442Z,10.45
2024-01-22T17:30:53.897Z,9.32
2024-01-22T17:33:22.300Z,9.48
2024-01-22T17:35:50.682Z,7.60
2024-01-22T17:38:19.404Z,8.43
2024-01-22T17:40:47.521Z,7.97
2024-01-22T17:43:15.608Z,8.93
2024-01-22T17:45:45.235Z,9.43
2024-01-22T17:48:13.241Z,9.85
2024-01-22T17:50:40.201Z,6.53
2024-01-22T17:53:08.148Z,5.63
2024-01-22T17:55:36.116Z,7.53
2024-01-22T17:58:04.276Z,8.20
2024-01-22T18:00:32.381Z,8.50
2024-01-22T18:03:01.950Z,8.65
2024-01-22T18:05:29.950Z,8.45
2024-01-22T18:07:58.772Z,10.30
2024-01-22T18:10:26.777Z,6.45
2024-01-22T18:12:54.927Z,7.35
2024-01-22T18:15:23.113Z,7.45
2024-01-22T18:17:51.269Z,9.55
2024-01-22T18:20:20.705Z,8.13
2024-01-22T18:22:48.750Z,7.35
2024-01-22T18:25:16.952Z,7.07
2024-01-22T18:27:44.988Z,7.70
2024-01-22T18:30:13.643Z,9.65
2024-01-22T18:32:41.717Z,5.95
2024-01-22T18:35:10.326Z,7.57
2024-01-22T18:37:39.692Z,8.32
2024-01-22T18:40:09.868Z,11.68
2024-01-22T18:42:39.158Z,7.72
2024-01-22T18:45:11.173Z,8.18
2024-01-22T18:47:40.910Z,8.50
2024-01-22T18:50:09.894Z,11.93
2024-01-22T18:52:39.263Z,7.80
2024-01-22T18:55:08.323Z,9.50
2024-01-22T18:57:36.356Z,8.52
2024-01-22T19:00:05.370Z,8.15
2024-01-22T19:02:33.394Z,7.43
2024-01-22T19:05:01.530Z,10.48
2024-01-22T19:07:29.520Z,6.85
2024-01-22T19:09:58.791Z,7.25
2024-01-22T19:12:26.869Z,7.03
2024-01-22T19:14:55.001Z,8.63
2024-01-22T19:17:22.967Z,7.95
2024-01-22T19:19:51.137Z,8.45
2024-01-22T19:22:19.237Z,8.70
2024-01-22T19:24:47.222Z,11.43
2024-01-22T19:27:17.330Z,9.20
2024-01-22T19:29:45.285Z,9.07
2024-01-22T19:32:14.337Z,9.00
2024-01-22T19:34:42.454Z,7.28
2024-01-22T19:37:10.590Z,9.15
2024-01-22T19:39:38.580Z,8.90
2024-01-22T19:42:07.298Z,9.18
2024-01-22T19:44:38.431Z,9.23
2024-01-22T19:47:06.827Z,7.10
2024-01-22T19:49:34.723Z,7.88
2024-01-22T19:52:02.734Z,8.35
2024-01-22T19:54:30.639Z,7.00
2024-01-22T19:56:58.793Z,9.68
2024-01-22T19:59:27.343Z,8.50
2024-01-22T20:01:56.743Z,9.75
2024-01-22T20:04:24.806Z,7.72
2024-01-22T20:06:55.120Z,11.90
2024-01-22T20:09:25.512Z,9.95
2024-01-22T20:11:53.824Z,8.55
2024-01-22T20:14:21.804Z,8.00
2024-01-22T20:16:49.763Z,8.88
2024-01-22T20:19:19.119Z,7.80
2024-01-22T20:21:48.820Z,9.20
2024-01-22T20:24:19.194Z,9.73
2024-01-22T20:26:48.325Z,7.97
2024-01-22T20:29:16.448Z,9.23
2024-01-22T20:31:44.466Z,8.43
2024-01-22T20:34:12.688Z,8.65
2024-01-22T20:36:42.065Z,7.22
2024-01-22T20:39:10.055Z,6.72
2024-01-22T20:41:41.581Z,10.23
2024-01-22T20:44:09.739Z,6.45
2024-01-22T20:46:37.987Z,9.23
2024-01-22T20:49:06.508Z,9.75
2024-01-22T20:51:34.616Z,10.10
2024-01-22T20:54:04.461Z,8.75
2024-01-22T20:56:32.405Z,6.13
2024-01-22T20:59:01.665Z,11.15
2024-01-22T21:01:30.004Z,8.20
2024-01-22T21:03:58.257Z,7.45
2024-01-22T21:06:26.648Z,6.05
2024-01-22T21:08:54.975Z,6.68
2024-01-22T21:11:24.618Z,6.35
2024-01-22T21:13:53.404Z,6.57
2024-01-22T21:16:22.160Z,7.53
2024-01-22T21:18:50.289Z,8.00
2024-01-22T21:21:18.445Z,5.70
2024-01-22T21:23:49.236Z,7.25
2024-01-22T21:26:18.903Z,10.55
2024-01-22T21:28:49.940Z,6.07
2024-01-22T21:31:19.544Z,6.50
2024-01-22T21:33:49.141Z,8.82
2024-01-22T21:36:17.625Z,6.40
2024-01-22T21:38:45.754Z,8.02
2024-01-22T21:41:14.357Z,6.85
2024-01-22T21:43:42.342Z,9.10
2024-01-22T21:46:11.810Z,11.20
2024-01-22T21:48:39.933Z,7.43
2024-01-22T21:51:07.917Z,7.53
2024-01-22T21:53:42.318Z,8.20
2024-01-22T21:56:11.176Z,7.25
2024-01-22T21:58:39.333Z,9.20
2024-01-22T22:01:08.421Z,7.75
2024-01-22T22:03:38.263Z,8.98
2024-01-22T22:06:07.856Z,8.32
2024-01-22T22:08:36.156Z,8.88
2024-01-22T22:11:04.800Z,9.23
2024-01-22T22:13:32.806Z,11.13
2024-01-22T22:16:01.840Z,10.68
2024-01-22T22:18:30.602Z,8.05
2024-01-22T22:21:00.107Z,7.00
2024-01-22T22:23:28.764Z,7.55
2024-01-22T22:25:56.631Z,9.30
2024-01-22T22:28:24.491Z,10.77
2024-01-22T22:30:53.730Z,7.55
2024-01-22T22:33:22.175Z,9.30
2024-01-22T22:35:51.442Z,9.35
2024-01-22T22:38:21.065Z,6.47
2024-01-22T22:40:49.067Z,7.40
2024-01-22T22:43:20.162Z,6.85
2024-01-22T22:45:48.201Z,6.22
2024-01-22T22:48:16.279Z,10.45
2024-01-22T22:50:44.411Z,6.78
2024-01-22T22:53:12.363Z,6.88
2024-01-22T22:55:41.869Z,8.55
2024-01-22T22:58:09.745Z,9.55
2024-01-22T23:00:37.929Z,8.60
2024-01-22T23:03:06.947Z,7.88
2024-01-22T23:05:35.036Z,9.55
2024-01-22T23:08:03.115Z,8.93
2024-01-22T23:10:31.013Z,8.88
2024-01-22T23:13:01.120Z,11.93
2024-01-22T23:15:29.281Z,10.25
2024-01-22T23:17:57.343Z,6.57
2024-01-22T23:20:25.821Z,9.05
2024-01-22T23:22:53.982Z,7.38
2024-01-22T23:25:21.902Z,7.95
2024-01-22T23:27:49.781Z,6.72
2024-01-22T23:30:19.354Z,11.25
2024-01-22T23:32:47.318Z,8.98
2024-01-22T23:35:15.758Z,6.90
2024-01-22T23:37:49.543Z,8.15
2024-01-22T23:40:17.879Z,8.02
2024-01-22T23:42:46.075Z,10.10
2024-01-22T23:45:14.599Z,9.57
2024-01-22T23:47:43.966Z,7.05
2024-01-22T23:50:12.834Z,7.13
2024-01-22T23:52:40.916Z,7.25
2024-01-22T23:55:11.297Z,6.82
2024-01-22T23:57:39.671Z,7.85
